Latest Weather Observations for Omeo

IDV60801

Issued at 11:32 am EST Saturday 22 September 2018 (issued every 10 minutes, with the page automatically refreshed every 10 minutes)

About weather observations | Map of weather stations | Latest weather observations for VIC | Other Formats
Station Details ID: 083090 Name: OMEO Lat: -37.10 Lon: 147.60 Height: 689.8 m
Data from the previous 72 hours. | See also: Recent months at Omeo
Date/Time
EST
Temp
°C
App
Temp
°C
Dew
Point
°C
Rel
Hum
%
Delta-T
°C
Wind Press
QNH
hPa
Press
MSL
hPa
Rain since
9am
mm
Dir  Spd
km/h
Gust
km/h
Spd
kts
Gust
kts
22/11:30am 15.3 10.7 6.6 56 4.4 N 20 28 11 15 1025.5 1025.7 0.0
22/11:00am 14.4 9.7 6.0 57 4.1 N 20 30 11 16 1026.0 1026.2 0.0
22/10:30am 13.5 8.9 5.7 59 3.8 N 19 26 10 14 1026.2 1026.4 0.0
22/10:00am 11.8 7.9 5.2 64 3.1 N 15 22 8 12 1026.7 1026.9 0.0
22/09:30am 10.4 6.1 5.2 70 2.5 N 17 24 9 13 1026.9 1027.1 0.0
22/09:00am 8.9 4.9 4.7 75 1.9 N 15 20 8 11 1026.7 1026.9 0.0
22/08:30am 6.9 2.8 4.2 83 1.2 N 15 20 8 11 1027.1 1027.4 0.0
22/08:00am 4.7 1.2 3.7 93 0.4 NNW 11 15 6 8 1027.1 1027.4 0.0
22/07:30am 2.6 -0.1 2.5 99 0.0 NW 6 7 3 4 1027.4 1027.6 0.0
22/07:00am 1.1 -1.9 1.0 99 0.0 NNW 6 9 3 5 1026.9 1027.1 0.0
22/06:30am 0.4 -2.9 0.3 99 0.0 NW 7 11 4 6 1026.8 1027.0 0.0
22/06:00am 0.5 -3.1 0.4 99 0.0 NW 9 13 5 7 1026.6 1026.8 0.0
22/05:30am 0.4 -3.2 0.3 99 0.0 NW 9 13 5 7 1026.4 1026.6 0.0
22/05:00am 0.8 -2.8 0.7 99 0.0 NNW 9 13 5 7 1026.4 1026.6 0.0
22/04:30am 0.8 -2.8 0.5 98 0.1 N 9 11 5 6 1026.5 1026.7 0.0
22/04:00am 1.3 -1.7 1.0 98 0.1 NW 6 7 3 4 1026.3 1026.5 0.0
22/03:30am 1.9 -1.5 1.6 98 0.1 NNW 9 11 5 6 1026.2 1026.4 0.0
22/03:00am 2.0 -1.1 1.6 97 0.2 NW 7 9 4 5 1026.0 1026.2 0.0
22/02:30am 2.3 -0.1 1.9 97 0.2 WNW 4 7 2 4 1026.3 1026.5 0.0
22/02:00am 1.6 -1.0 1.0 96 0.2 W 4 7 2 4 1026.5 1026.7 0.0
22/01:30am 2.1 0.3 1.5 96 0.2 CALM 0 0 0 0 1026.9 1027.1 0.0
22/01:00am 2.5 0.8 1.9 96 0.2 CALM 0 0 0 0 1027.1 1027.4 0.0
22/12:30am 2.8 1.2 2.2 96 0.2 CALM 0 0 0 0 1027.1 1027.4 0.0
22/12:00am 3.0 1.4 2.3 95 0.3 CALM 0 0 0 0 1027.1 1027.4 0.0
 
Date/Time
EST
Temp
°C
App
Temp
°C
Dew
Point
°C
Rel
Hum
%
Delta-T
°C
Wind Press
QNH
hPa
Press
MSL
hPa
Rain since
9am
mm
Dir  Spd
km/h
Gust
km/h
Spd
kts
Gust
kts
21/11:30pm 2.7 0.6 1.5 92 0.5 SSE 2 7 1 4 1027.0 1027.2 0.0
21/11:00pm 3.9 1.2 2.7 92 0.5 SSE 6 7 3 4 1027.1 1027.4 0.0
21/10:30pm 4.3 1.7 3.0 91 0.6 SSE 6 7 3 4 1027.4 1027.6 0.0
21/10:00pm 4.9 3.4 3.1 88 0.8 CALM 0 0 0 0 1027.2 1027.5 0.0
21/09:30pm 6.4 4.7 4.1 85 1.0 SW 2 7 1 4 1027.2 1027.5 0.0
21/09:00pm 7.7 6.1 4.5 80 1.4 SW 2 6 1 3 1027.2 1027.5 0.0
21/08:30pm 8.5 6.3 5.3 80 1.5 SSE 6 9 3 5 1027.2 1027.5 0.0
21/08:00pm 9.2 6.8 5.4 77 1.8 SSE 7 13 4 7 1026.9 1027.1 0.0
21/07:30pm 9.8 7.4 5.2 73 2.2 ESE 7 11 4 6 1026.7 1026.9 0.0
21/07:00pm 10.7 8.2 4.8 67 2.8 SE 7 9 4 5 1026.2 1026.4 0.0
21/06:30pm 12.0 9.5 5.0 62 3.3 NE 7 11 4 6 1025.5 1025.7 0.0
21/06:00pm 13.1 9.6 5.3 59 3.8 N 13 17 7 9 1025.1 1025.3 0.0
21/05:30pm 14.7 10.8 5.2 53 4.6 N 15 20 8 11 1024.8 1025.0 0.0
21/05:00pm 15.8 11.8 5.1 49 5.2 N 15 20 8 11 1024.6 1024.7 0.0
21/04:30pm 16.5 11.8 5.2 47 5.6 N 19 26 10 14 1024.4 1024.5 0.0
21/04:00pm 17.4 13.6 5.7 46 5.9 N 15 22 8 12 1024.1 1024.3 0.0
21/03:30pm 17.7 13.8 5.3 44 6.2 NNE 15 22 8 12 1024.0 1024.2 0.0
21/03:00pm 17.6 13.8 5.9 46 5.9 N 15 24 8 13 1023.9 1024.1 0.0
21/02:30pm 17.6 13.8 5.9 46 5.9 NNE 15 24 8 13 1024.0 1024.2 0.0
21/02:00pm 17.3 13.0 5.3 45 6.0 NNE 17 28 9 15 1024.3 1024.4 0.0
21/01:30pm 16.7 12.5 5.6 48 5.6 N 17 26 9 14 1024.4 1024.5 0.0
21/01:00pm 16.5 12.3 5.5 48 5.5 N 17 28 9 15 1024.5 1024.6 0.0
21/12:30pm 15.6 10.7 4.0 46 5.6 N 19 32 10 17 1024.9 1025.1 0.0
21/12:00pm 15.2 10.6 3.7 46 5.4 N 17 26 9 14 1025.3 1025.5 0.0
21/11:30am 13.6 8.7 4.2 53 4.5 N 19 26 10 14 1025.6 1025.8 0.0
21/11:00am 12.6 7.5 4.3 57 3.9 N 20 30 11 16 1026.2 1026.4 0.0
21/10:30am 11.1 6.6 4.1 62 3.3 N 17 26 9 14 1026.4 1026.6 0.0
21/10:00am 9.7 4.4 2.8 62 3.1 N 20 32 11 17 1026.6 1026.8 0.0
21/09:30am 8.5 4.1 2.9 68 2.5 NNE 15 22 8 12 1026.6 1026.8 0.0
21/09:00am 7.0 2.3 3.1 76 1.7 N 17 20 9 11 1026.8 1027.0 0.0
21/08:30am 4.6 -0.1 1.1 78 1.4 N 15 20 8 11 1026.7 1026.9 0.0
21/08:00am 2.9 -1.5 0.6 85 0.9 N 13 19 7 10 1026.9 1027.1 0.0
21/07:30am 0.5 -3.3 -0.4 94 0.3 NNW 9 15 5 8 1026.8 1027.0 0.0
21/07:00am -1.4 -4.4 -2.1 95 0.2 WNW 4 6 2 3 1026.7 1026.9 0.0
21/06:30am -1.7 -4.8 -2.4 95 0.2 WNW 4 7 2 4 1026.2 1026.4 0.0
21/06:00am -2.1 -5.8 -2.8 95 0.1 WNW 7 9 4 5 1025.9 1026.0 0.0
21/05:30am -1.8 -4.9 -2.5 95 0.2 WNW 4 7 2 4 1025.4 1025.6 0.0
21/05:00am -1.7 -5.3 -2.4 95 0.2 WNW 7 9 4 5 1025.2 1025.4 0.0
21/04:30am -1.8 -4.1 -2.6 94 0.2 CALM 0 0 0 0 1024.9 1025.1 0.0
21/04:00am -0.8 -3.8 -1.5 95 0.2 NW 4 9 2 5 1024.8 1025.0 0.0
21/03:30am -1.2 -4.2 -2.0 94 0.2 W 4 6 2 3 1024.7 1024.9 0.0
21/03:00am -1.2 -3.5 -2.3 92 0.3 CALM 0 2 0 1 1024.7 1024.9 0.0
21/02:30am -0.5 -3.8 -1.5 93 0.3 WSW 6 7 3 4 1024.7 1024.9 0.0
21/02:00am -0.1 -2.2 -1.1 93 0.4 CALM 0 0 0 0 1024.9 1025.1 0.0
21/01:30am 0.0 -2.1 -1.0 93 0.4 CALM 0 0 0 0 1025.1 1025.3 0.0
21/01:00am 0.1 -2.0 -1.0 92 0.4 CALM 0 0 0 0 1025.0 1025.2 0.0
21/12:30am 0.8 -1.3 -0.6 90 0.5 CALM 0 0 0 0 1024.7 1024.9 0.0
21/12:00am 1.3 -0.7 -0.3 89 0.6 CALM 0 0 0 0 1024.6 1024.7 0.0
 
Date/Time
EST
Temp
°C
App
Temp
°C
Dew
Point
°C
Rel
Hum
%
Delta-T
°C
Wind Press
QNH
hPa
Press
MSL
hPa
Rain since
9am
mm
Dir  Spd
km/h
Gust
km/h
Spd
kts
Gust
kts
20/11:30pm 1.1 -1.0 -0.8 87 0.7 CALM 0 0 0 0 1024.6 1024.7 0.0
20/11:00pm 1.7 -0.7 -0.4 86 0.8 SSW 2 7 1 4 1024.7 1024.9 0.0
20/10:30pm 2.2 0.2 -0.2 84 0.9 CALM 0 0 0 0 1024.6 1024.7 0.0
20/10:00pm 2.6 0.6 -0.3 81 1.1 CALM 0 0 0 0 1024.6 1024.7 0.0
20/09:30pm 3.6 1.6 0.1 78 1.4 CALM 0 6 0 3 1024.3 1024.4 0.0
20/09:00pm 4.6 2.0 0.7 76 1.6 SE 4 7 2 4 1023.8 1024.0 0.0
20/08:30pm 5.6 2.7 1.3 74 1.8 SSW 6 9 3 5 1023.4 1023.6 0.0
20/08:00pm 6.4 3.5 1.3 70 2.1 SSW 6 13 3 7 1022.9 1023.0 0.0
20/07:30pm 6.9 4.7 1.2 67 2.4 W 2 7 1 4 1022.2 1022.4 0.0
20/07:00pm 7.4 4.2 0.8 63 2.7 S 7 15 4 8 1021.9 1022.0 0.0
20/06:30pm 8.3 5.3 0.5 58 3.3 SE 6 9 3 5 1021.6 1021.7 0.0
20/06:00pm 9.6 5.6 0.2 52 3.9 SE 11 17 6 9 1020.9 1021.1 0.0
20/05:30pm 11.5 6.2 -0.3 44 5.0 SE 17 24 9 13 1020.4 1020.5 0.0
20/05:00pm 14.3 10.3 -2.1 32 6.8 SE 9 15 5 8 1019.9 1020.0 0.0
20/04:30pm 14.8 11.1 -2.6 30 7.2 SE 7 13 4 7 1019.5 1019.6 0.0
20/04:00pm 14.8 11.0 -3.5 28 7.4 SSE 7 13 4 7 1019.1 1019.2 0.0
20/03:30pm 15.3 10.8 -3.6 27 7.7 SE 11 17 6 9 1018.9 1019.0 0.0
20/03:00pm 14.4 10.7 -2.5 31 7.0 E 7 13 4 7 1019.0 1019.1 0.0
20/02:30pm 14.1 9.7 -2.8 31 6.9 NNW 11 20 6 11 1019.0 1019.1 0.0
20/02:00pm 14.4 10.9 -2.5 31 7.0 E 6 11 3 6 1018.9 1019.0 0.0
20/01:30pm 13.8 9.7 -3.0 31 6.8 ESE 9 17 5 9 1019.0 1019.1 0.0
20/01:00pm 14.0 10.6 -0.8 36 6.3 ESE 7 13 4 7 1019.1 1019.2 0.0
20/12:30pm 12.5 8.2 -1.4 38 5.8 N 11 19 6 10 1019.1 1019.2 0.0
20/12:00pm 11.5 7.5 -2.3 38 5.6 NE 9 17 5 9 1019.1 1019.2 0.0
20/11:30am 11.8 7.9 -1.3 40 5.4 ESE 9 15 5 8 1019.5 1019.6 0.0
20/11:00am 10.1 6.4 -0.1 49 4.3 NNE 9 15 5 8 1019.5 1019.6 0.0
20/10:30am 9.2 6.0 -0.7 50 4.1 NNE 6 13 3 7 1019.9 1020.0 0.0
20/10:00am 7.4 3.2 -0.8 56 3.3 N 11 15 6 8 1020.0 1020.1 0.0
20/09:30am 6.1 1.9 -0.8 61 2.7 N 11 15 6 8 1020.3 1020.4 0.0
20/09:00am 3.9 -0.4 -1.3 69 2.0 NNW 11 19 6 10 1020.2 1020.3 0.0
20/08:30am 1.8 -2.2 -2.0 76 1.4 N 9 11 5 6 1020.0 1020.1 0.0
20/08:00am 0.5 -2.9 -1.9 84 0.9 NNW 6 9 3 5 1019.8 1019.9 0.0
20/07:30am -1.4 -3.7 -2.0 96 0.1 CALM 0 7 0 4 1019.4 1019.5 0.0
20/07:00am -3.9 -6.5 -4.6 95 0.1 CALM 0 4 0 2 1019.1 1019.2 0.0
20/06:30am -4.8 -7.5 -5.6 94 0.1 CALM 0 0 0 0 1018.7 1018.8 0.0
20/06:00am -4.5 -7.1 -5.3 94 0.1 CALM 0 0 0 0 1018.3 1018.3 0.0
20/05:30am -4.5 -7.2 -5.5 93 0.1 CALM 0 0 0 0 1018.1 1018.1 0.0
20/05:00am -3.7 -6.3 -4.5 94 0.1 CALM 0 0 0 0 1017.7 1017.8 0.0
20/04:30am -3.6 -6.2 -4.6 93 0.2 CALM 0 0 0 0 1017.5 1017.6 0.0
20/04:00am -3.7 -6.3 -4.8 92 0.2 CALM 0 0 0 0 1017.4 1017.5 0.0
20/03:30am -3.2 -5.7 -4.2 93 0.2 CALM 0 0 0 0 1017.3 1017.4 0.0
20/03:00am -3.1 -5.6 -4.1 93 0.2 CALM 0 0 0 0 1017.1 1017.1 0.0
20/02:30am -2.9 -5.4 -4.0 92 0.2 CALM 0 0 0 0 1017.2 1017.3 0.0
20/02:00am -2.1 -4.5 -3.2 92 0.3 CALM 0 0 0 0 1017.4 1017.5 0.0
20/01:30am -2.0 -5.2 -3.3 91 0.4 WNW 4 6 2 3 1017.7 1017.8 0.0
20/01:00am -2.0 -4.8 -3.4 90 0.4 ESE 2 9 1 5 1017.6 1017.7 0.0
20/12:30am -1.3 -4.1 -3.0 88 0.5 SSE 2 6 1 3 1017.4 1017.5 0.0
20/12:00am -0.7 -3.8 -2.6 87 0.6 WNW 4 6 2 3 1017.3 1017.4 0.0
 
Date/Time
EST
Temp
°C
App
Temp
°C
Dew
Point
°C
Rel
Hum
%
Delta-T
°C
Wind Press
QNH
hPa
Press
MSL
hPa
Rain since
9am
mm
Dir  Spd
km/h
Gust
km/h
Spd
kts
Gust
kts
19/11:30pm -0.3 -3.9 -2.0 88 0.6 SSE 7 13 4 7 1017.1 1017.1 0.0
19/11:00pm -0.5 -3.6 -2.7 85 0.7 SE 4 7 2 4 1017.0 1017.0 0.0
19/10:30pm 0.6 -2.4 -1.9 83 0.9 SSW 4 7 2 4 1016.7 1016.7 0.0
19/10:00pm 0.9 -1.4 -2.2 80 1.2 CALM 0 0 0 0 1016.4 1016.5 0.0
19/09:30pm 1.5 -1.9 -2.1 77 1.3 SW 6 9 3 5 1016.3 1016.4 0.0
19/09:00pm 2.1 -1.4 -1.7 76 1.4 SE 7 11 4 6 1016.1 1016.2 0.0
19/08:30pm 2.8 -0.8 -2.1 70 1.8 SSE 7 9 4 5 1015.8 1015.8 0.0
19/08:00pm 3.1 -0.3 -2.4 67 2.0 S 6 13 3 7 1015.6 1015.6 0.0
19/07:30pm 4.6 1.1 -2.9 58 2.8 SW 6 9 3 5 1015.1 1015.1 0.0
19/07:00pm 5.5 2.8 -2.8 55 3.1 WSW 2 6 1 3 1014.5 1014.5 0.0
19/06:30pm 6.3 4.0 -2.6 53 3.4 CALM 0 0 0 0 1014.2 1014.2 0.0
19/06:00pm 8.2 4.1 -2.7 46 4.2 W 9 17 5 9 1013.8 1013.8 0.0
19/05:30pm 9.1 4.2 -3.1 42 4.7 W 13 19 7 10 1013.5 1013.5 0.0
19/05:00pm 10.0 4.4 -3.3 39 5.2 WSW 17 26 9 14 1012.9 1012.9 0.0
19/04:30pm 10.3 5.5 -2.4 41 5.1 SW 13 20 7 11 1012.3 1012.3 0.0
19/04:00pm 10.6 5.7 -3.8 36 5.6 WSW 13 30 7 16 1012.0 1011.9 0.0
19/03:30pm 10.9 5.6 -3.2 37 5.5 W 15 26 8 14 1011.5 1011.5 0.0
19/03:00pm 12.1 6.0 -3.7 33 6.2 WNW 19 30 10 16 1011.1 1011.1 0.0
19/02:30pm 12.3 6.3 -2.7 35 6.1 W 19 28 10 15 1010.9 1010.8 0.0
19/02:00pm 12.1 6.4 -0.7 41 5.4 WNW 19 30 10 16 1010.5 1010.4 0.0
19/01:30pm 12.8 6.6 -3.0 33 6.4 WNW 20 30 11 16 1010.5 1010.4 0.0
19/01:00pm 12.7 6.6 -2.7 34 6.3 W 20 41 11 22 1010.2 1010.2 0.0
19/12:30pm 12.3 5.6 -3.9 32 6.4 WNW 22 37 12 20 1010.4 1010.3 0.0
19/12:00pm 12.5 7.5 -1.4 38 5.8 WNW 15 30 8 16 1010.1 1010.1 0.0

Other Formats:

Comma delimited format used in spreadsheet applications
http://www.bom.gov.au/fwo/IDV60801/IDV60801.94908.axf

JavaScript Object Notation format (JSON) in row-major order
http://www.bom.gov.au/fwo/IDV60801/IDV60801.94908.json